Time;durP1;ratioP1;P1;durP2;ratioP2;P2;SDS_P1;SDS_P2;PMS_P1;PMS_P2;Temp;Humidity;BMP_temperature;BMP_pressure;BME280_temperature;BME280_humidity;BME280_pressure;Samples;Min_cycle;Max_cycle;Signal;HPM_P1;HPM_P2
2022/08/06 00:00:21;;;;;;;3.95;1.48;;;18.60;96.20;;;;;;5137761;27;20035;-83
2022/08/06 00:02:46;;;;;;;2.35;0.73;;;18.60;96.00;;;;;;5134856;28;20027;-84
2022/08/06 00:05:12;;;;;;;1.35;0.80;;;18.60;95.80;;;;;;5136019;27;20027;-84
2022/08/06 00:07:38;;;;;;;0.93;0.60;;;18.50;95.00;;;;;;5137951;27;20037;-82
2022/08/06 00:10:04;;;;;;;1.42;0.68;;;18.50;94.50;;;;;;5141834;27;20079;-83
2022/08/06 00:12:31;;;;;;;2.30;0.70;;;18.40;94.30;;;;;;5140322;27;20109;-83
2022/08/06 00:14:58;;;;;;;3.28;0.70;;;18.50;93.60;;;;;;5145146;27;20515;-82
2022/08/06 00:17:24;;;;;;;1.48;0.63;;;18.50;93.90;;;;;;5142182;27;20163;-83
2022/08/06 00:19:50;;;;;;;1.45;0.50;;;18.40;93.90;;;;;;5147063;27;20023;-82
2022/08/06 00:22:16;;;;;;;0.93;0.57;;;18.40;94.10;;;;;;5145115;27;20060;-83
2022/08/06 00:24:41;;;;;;;1.23;0.60;;;18.50;94.20;;;;;;5148721;27;20484;-84
2022/08/06 00:27:06;;;;;;;1.48;0.70;;;18.40;94.40;;;;;;5149371;27;20045;-83
2022/08/06 00:29:32;;;;;;;2.13;0.70;;;18.40;94.60;;;;;;5148957;27;20501;-82
2022/08/06 00:31:57;;;;;;;0.70;0.47;;;18.30;94.90;;;;;;5147477;27;20042;-83
2022/08/06 00:34:23;;;;;;;2.35;0.50;;;18.30;95.00;;;;;;5137285;27;20023;-83
2022/08/06 00:36:48;;;;;;;0.90;0.47;;;18.20;94.90;;;;;;5144405;27;20035;-84
2022/08/06 00:39:14;;;;;;;1.05;0.57;;;18.20;95.10;;;;;;5141799;27;20082;-83
2022/08/06 00:41:39;;;;;;;2.53;0.80;;;18.10;95.30;;;;;;5138304;27;20023;-82
2022/08/06 00:44:05;;;;;;;1.73;0.50;;;18.00;95.40;;;;;;5149252;27;20083;-82
2022/08/06 00:46:31;;;;;;;2.83;0.68;;;18.00;95.30;;;;;;5138976;27;20469;-82
2022/08/06 00:48:56;;;;;;;0.80;0.50;;;17.90;95.20;;;;;;5139093;27;20019;-81
2022/08/06 00:51:22;;;;;;;0.60;0.50;;;17.90;95.30;;;;;;5145991;27;20035;-83
2022/08/06 00:53:49;;;;;;;0.80;0.60;;;17.90;95.40;;;;;;5149785;27;20064;-82
2022/08/06 00:56:15;;;;;;;1.05;0.70;;;17.90;95.40;;;;;;5147910;27;20031;-82
2022/08/06 00:58:41;;;;;;;1.35;0.82;;;17.70;95.80;;;;;;5145576;27;20034;-83
2022/08/06 01:01:10;;;;;;;3.92;0.70;;;17.70;95.60;;;;;;5144202;27;20027;-82
2022/08/06 01:03:36;;;;;;;3.83;0.52;;;17.70;95.70;;;;;;5147265;27;20015;-82
2022/08/06 01:06:02;;;;;;;3.20;0.80;;;17.60;95.60;;;;;;5147475;27;20031;-82
2022/08/06 01:08:27;;;;;;;1.50;0.80;;;17.60;95.60;;;;;;5141088;27;20019;-84
2022/08/06 01:10:53;;;;;;;2.10;0.57;;;17.40;95.80;;;;;;5133329;27;20039;-83
2022/08/06 01:13:18;;;;;;;2.75;0.98;;;17.40;95.60;;;;;;5134539;27;20068;-83
2022/08/06 01:16:08;;;;;;;0.70;0.57;;;17.40;95.30;;;;;;5133397;27;20043;-83
2022/08/06 01:18:41;;;;;;;2.25;0.50;;;17.30;95.20;;;;;;5132003;27;20052;-83
2022/08/06 01:21:13;;;;;;;;;;;17.40;94.90;;;;;;5133647;27;20034;-82
2022/08/06 01:23:52;;;;;;;3.30;0.50;;;17.30;94.60;;;;;;5132417;27;20048;-82
2022/08/06 01:26:26;;;;;;;1.60;0.50;;;17.20;94.50;;;;;;5131070;27;20030;-83
2022/08/06 01:29:01;;;;;;;1.77;0.52;;;17.20;94.40;;;;;;5133445;27;20031;-83
2022/08/06 01:31:34;;;;;;;1.17;0.50;;;17.20;94.50;;;;;;5133200;27;20023;-83
2022/08/06 01:34:07;;;;;;;4.78;0.63;;;17.10;94.20;;;;;;5131945;27;20026;-81
2022/08/06 01:37:05;;;;;;;0.73;0.40;;;17.10;94.20;;;;;;5110912;28;20035;-81
2022/08/06 01:39:33;;;;;;;0.60;0.30;;;17.10;94.30;;;;;;5112237;28;20112;-82
2022/08/06 01:42:02;;;;;;;1.83;0.57;;;17.10;94.30;;;;;;5112108;27;20028;-82
2022/08/06 01:44:37;;;;;;;1.10;0.43;;;17.00;94.40;;;;;;5112965;28;20032;-83
2022/08/06 01:47:08;;;;;;;1.00;0.50;;;17.00;94.40;;;;;;5111662;28;20038;-82
2022/08/06 01:49:37;;;;;;;0.50;0.40;;;17.00;94.50;;;;;;5112771;28;20137;-83
2022/08/06 01:52:05;;;;;;;2.05;0.60;;;16.80;94.30;;;;;;5112140;28;20046;-83
2022/08/06 01:54:37;;;;;;;2.60;0.50;;;16.90;94.50;;;;;;5112560;28;20626;-82
2022/08/06 01:57:04;;;;;;;0.55;0.40;;;16.90;94.50;;;;;;5112147;28;20107;-83
2022/08/06 01:59:41;;;;;;;0.60;0.30;;;16.90;94.50;;;;;;5112748;28;20080;-82
2022/08/06 02:02:10;;;;;;;0.80;0.50;;;16.90;94.50;;;;;;5112412;28;20024;-82
2022/08/06 02:04:40;;;;;;;2.15;0.65;;;16.90;94.50;;;;;;5112477;28;20023;-82
2022/08/06 02:07:09;;;;;;;2.47;0.70;;;16.90;94.60;;;;;;5110499;28;20047;-82
2022/08/06 02:09:37;;;;;;;2.35;0.57;;;16.90;94.50;;;;;;5112673;28;20034;-83
2022/08/06 02:12:06;;;;;;;1.42;0.40;;;16.90;94.50;;;;;;5112455;28;20404;-83
2022/08/06 02:14:34;;;;;;;2.05;0.50;;;16.90;94.40;;;;;;5112919;28;20107;-82
2022/08/06 02:17:02;;;;;;;1.30;0.60;;;16.80;94.50;;;;;;5112290;28;20509;-83
2022/08/06 02:19:30;;;;;;;1.13;0.40;;;16.80;94.60;;;;;;5122352;28;20019;-82
2022/08/06 02:21:57;;;;;;;1.77;0.43;;;16.80;94.60;;;;;;5118891;28;20612;-82
2022/08/06 02:24:25;;;;;;;0.80;0.45;;;16.70;94.20;;;;;;5110476;28;20031;-82
2022/08/06 02:26:52;;;;;;;1.45;0.43;;;16.70;94.20;;;;;;5111258;28;20146;-83
2022/08/06 02:29:18;;;;;;;0.77;0.47;;;16.70;94.30;;;;;;5111723;28;20066;-82
2022/08/06 02:31:44;;;;;;;2.20;0.68;;;16.60;94.30;;;;;;5111455;28;20020;-81
2022/08/06 02:34:10;;;;;;;0.85;0.43;;;16.60;94.20;;;;;;5111481;28;20141;-82
2022/08/06 02:36:41;;;;;;;0.90;0.50;;;16.60;94.30;;;;;;5110662;28;20020;-82
2022/08/06 02:39:11;;;;;;;0.85;0.40;;;16.60;94.60;;;;;;5111489;28;20412;-83
2022/08/06 02:41:42;;;;;;;1.92;0.52;;;16.70;94.40;;;;;;5109583;28;20683;-83
2022/08/06 02:44:36;;;;;;;0.50;0.40;;;16.70;94.20;;;;;;5111363;28;20030;-83
2022/08/06 02:47:11;;;;;;;3.03;0.40;;;16.60;94.30;;;;;;5075250;28;20115;-83
2022/08/06 02:49:40;;;;;;;1.52;0.40;;;16.60;94.50;;;;;;5110034;28;20023;-83
2022/08/06 02:52:17;;;;;;;0.60;0.60;;;16.60;94.50;;;;;;5110768;28;20118;-82
2022/08/06 02:54:56;;;;;;;0.95;0.40;;;16.50;94.60;;;;;;5111477;28;20031;-83
2022/08/06 02:57:24;;;;;;;0.95;0.40;;;16.60;94.60;;;;;;5110391;28;20034;-83
2022/08/06 02:59:54;;;;;;;1.83;0.40;;;16.50;94.70;;;;;;5111243;28;20036;-83
2022/08/06 03:02:23;;;;;;;0.47;0.43;;;16.60;94.60;;;;;;5109537;28;20035;-80
2022/08/06 03:04:51;;;;;;;1.88;0.95;;;16.60;94.60;;;;;;5111889;28;20038;-81
2022/08/06 03:07:18;;;;;;;1.27;0.50;;;16.70;94.70;;;;;;5109178;28;20039;-82
2022/08/06 03:09:47;;;;;;;0.70;0.40;;;16.70;94.90;;;;;;5110020;28;20096;-81
2022/08/06 03:12:15;;;;;;;1.42;0.45;;;16.70;95.00;;;;;;5111063;28;20035;-81
2022/08/06 03:14:43;;;;;;;1.58;1.02;;;16.70;95.10;;;;;;5109908;28;20038;-81
2022/08/06 03:17:12;;;;;;;0.40;0.32;;;16.70;95.20;;;;;;5109483;28;20085;-81
2022/08/06 03:19:38;;;;;;;5.45;0.50;;;16.70;95.40;;;;;;5111583;28;20454;-81
2022/08/06 03:22:06;;;;;;;0.47;0.38;;;16.70;95.50;;;;;;5110902;28;20032;-80
2022/08/06 03:24:34;;;;;;;1.55;0.55;;;16.70;95.50;;;;;;5111381;28;20016;-81
2022/08/06 03:27:01;;;;;;;0.65;0.57;;;16.70;95.50;;;;;;5109961;28;20078;-81
2022/08/06 03:29:27;;;;;;;0.88;0.50;;;16.70;95.60;;;;;;5109948;28;20096;-81
2022/08/06 03:31:54;;;;;;;1.20;0.50;;;16.60;95.50;;;;;;5110874;28;20040;-80
2022/08/06 03:34:19;;;;;;;0.90;0.63;;;16.60;95.70;;;;;;5110449;28;20032;-81
2022/08/06 03:36:45;;;;;;;1.40;0.57;;;16.60;95.70;;;;;;5109076;28;20133;-81
2022/08/06 03:39:12;;;;;;;0.93;0.82;;;16.60;95.80;;;;;;5109139;28;20114;-80
2022/08/06 03:41:40;;;;;;;1.70;0.68;;;16.50;95.70;;;;;;5108994;28;20028;-81
2022/08/06 03:44:06;;;;;;;5.35;0.80;;;16.50;95.90;;;;;;5110554;28;20031;-80
2022/08/06 03:46:44;;;;;;;2.60;0.55;;;16.40;95.80;;;;;;5108784;28;20481;-81
2022/08/06 03:49:17;;;;;;;0.45;0.30;;;16.40;96.00;;;;;;5112685;28;20027;-81
2022/08/06 03:51:45;;;;;;;1.90;0.50;;;16.20;96.00;;;;;;5113142;28;20023;-81
2022/08/06 03:54:12;;;;;;;0.98;0.40;;;16.20;96.20;;;;;;5114737;28;20034;-81
2022/08/06 03:56:41;;;;;;;1.15;0.52;;;16.20;96.10;;;;;;5113968;28;20024;-81
2022/08/06 03:59:08;;;;;;;1.33;0.60;;;16.20;96.10;;;;;;5114219;28;20024;-81
2022/08/06 04:01:40;;;;;;;4.80;0.55;;;16.20;96.10;;;;;;5113850;28;20491;-80
2022/08/06 04:04:06;;;;;;;3.23;0.80;;;16.20;96.00;;;;;;5114620;28;20028;-81
2022/08/06 04:06:32;;;;;;;4.10;0.60;;;16.20;96.10;;;;;;5114112;28;20277;-81
2022/08/06 04:09:00;;;;;;;1.70;0.57;;;16.20;96.10;;;;;;5114493;28;20036;-81
2022/08/06 04:11:26;;;;;;;3.15;0.73;;;16.20;96.10;;;;;;5114339;28;20036;-81
2022/08/06 04:13:53;;;;;;;1.58;0.40;;;16.20;96.00;;;;;;5114401;28;20020;-82
2022/08/06 04:16:19;;;;;;;1.08;0.40;;;16.20;96.30;;;;;;5113577;28;20063;-82
2022/08/06 04:18:45;;;;;;;4.63;0.55;;;16.20;96.20;;;;;;5112924;28;20034;-81
2022/08/06 04:21:20;;;;;;;0.73;0.68;;;16.20;96.10;;;;;;5113316;28;20114;-83
2022/08/06 04:23:46;;;;;;;0.45;0.45;;;16.20;96.10;;;;;;5113984;28;20016;-82
2022/08/06 04:26:13;;;;;;;4.63;0.77;;;16.20;96.10;;;;;;5111647;28;20039;-81
2022/08/06 04:28:43;;;;;;;3.20;0.70;;;16.10;96.10;;;;;;5114168;28;20089;-81
2022/08/06 04:31:09;;;;;;;1.73;0.70;;;16.10;96.20;;;;;;5113698;27;20053;-82
2022/08/06 04:33:37;;;;;;;0.85;0.80;;;16.20;96.30;;;;;;5113862;28;20031;-81
2022/08/06 04:36:07;;;;;;;2.63;0.60;;;16.20;96.20;;;;;;5112987;28;20077;-81
2022/08/06 04:38:34;;;;;;;2.00;0.45;;;16.20;96.10;;;;;;5112406;28;20065;-81
2022/08/06 04:41:01;;;;;;;4.10;0.60;;;16.20;96.20;;;;;;5112139;28;20031;-81
2022/08/06 04:43:26;;;;;;;0.47;0.47;;;16.20;96.40;;;;;;5113708;28;20077;-81
2022/08/06 04:45:53;;;;;;;6.32;0.50;;;16.30;96.20;;;;;;5111940;28;20028;-82
2022/08/06 04:48:19;;;;;;;2.53;0.47;;;16.30;96.00;;;;;;5111995;28;20032;-81
2022/08/06 04:50:45;;;;;;;2.28;0.65;;;16.30;95.90;;;;;;5111998;28;20035;-81
2022/08/06 04:53:13;;;;;;;2.00;0.50;;;16.30;95.90;;;;;;5113584;28;20036;-82
2022/08/06 04:55:40;;;;;;;2.03;0.70;;;16.30;96.10;;;;;;5113150;28;20067;-82
2022/08/06 04:58:07;;;;;;;2.92;0.60;;;16.20;96.30;;;;;;5113263;28;20488;-82
2022/08/06 05:00:38;;;;;;;2.15;0.40;;;16.20;96.20;;;;;;5112081;28;20473;-82
2022/08/06 05:03:04;;;;;;;2.65;0.68;;;16.30;96.20;;;;;;5112994;28;20088;-82
2022/08/06 05:05:37;;;;;;;10.05;1.02;;;16.30;96.00;;;;;;5113206;28;20043;-82
2022/08/06 05:08:04;;;;;;;2.63;0.50;;;16.30;96.00;;;;;;5113208;28;20061;-82
2022/08/06 05:10:37;;;;;;;1.75;0.50;;;16.30;96.00;;;;;;5113205;28;20115;-82
2022/08/06 05:13:03;;;;;;;1.10;0.60;;;16.30;96.10;;;;;;5112276;28;20469;-82
2022/08/06 05:15:32;;;;;;;4.05;0.60;;;16.40;96.00;;;;;;5112761;28;20046;-81
2022/08/06 05:18:14;;;;;;;1.05;0.60;;;16.40;96.00;;;;;;5113673;27;20024;-82
2022/08/06 05:20:42;;;;;;;1.95;0.70;;;16.50;96.00;;;;;;5113570;28;20126;-81
2022/08/06 05:23:14;;;;;;;2.90;0.60;;;16.50;95.90;;;;;;5113974;27;20023;-81
2022/08/06 05:25:39;;;;;;;1.48;0.50;;;16.50;95.90;;;;;;5112843;28;20028;-83
2022/08/06 05:28:06;;;;;;;2.35;0.77;;;16.40;95.90;;;;;;5113961;28;20386;-81
2022/08/06 05:30:32;;;;;;;2.75;0.50;;;16.30;95.90;;;;;;5121071;28;20044;-80
2022/08/06 05:32:58;;;;;;;1.67;0.60;;;16.30;96.00;;;;;;5121776;28;20473;-81
2022/08/06 05:35:24;;;;;;;1.25;0.60;;;16.30;96.10;;;;;;5115359;28;20427;-81
2022/08/06 05:37:50;;;;;;;4.40;0.60;;;16.30;95.70;;;;;;5112964;28;20020;-83
2022/08/06 05:40:15;;;;;;;3.80;0.50;;;16.30;95.70;;;;;;5111093;28;20039;-81
2022/08/06 05:42:41;;;;;;;0.80;0.60;;;16.30;95.80;;;;;;5110882;28;20082;-81
2022/08/06 05:45:10;;;;;;;1.92;0.65;;;16.20;95.90;;;;;;5112326;28;20031;-83
2022/08/06 05:47:39;;;;;;;3.00;0.90;;;16.20;95.90;;;;;;5110471;28;20072;-83
2022/08/06 05:50:09;;;;;;;1.52;0.60;;;16.20;95.80;;;;;;5112481;28;20049;-82
2022/08/06 05:52:51;;;;;;;1.35;0.55;;;16.20;96.10;;;;;;5110937;28;20445;-81
2022/08/06 05:55:43;;;;;;;3.03;0.90;;;16.10;96.10;;;;;;5111865;28;20034;-84
2022/08/06 05:58:15;;;;;;;2.10;0.65;;;16.10;96.20;;;;;;5112028;28;20024;-81
2022/08/06 06:00:41;;;;;;;6.45;0.77;;;16.10;96.30;;;;;;5112268;27;20592;-82
2022/08/06 06:03:09;;;;;;;3.40;0.93;;;16.10;96.10;;;;;;5110128;28;20090;-82
2022/08/06 06:05:36;;;;;;;4.43;1.20;;;16.10;96.10;;;;;;5111195;28;20127;-82
2022/08/06 06:08:02;;;;;;;2.25;0.77;;;16.10;96.30;;;;;;5111665;28;20034;-82
2022/08/06 06:10:28;;;;;;;4.38;1.27;;;16.00;96.30;;;;;;5111266;28;20023;-82
2022/08/06 06:12:55;;;;;;;1.27;0.40;;;16.00;96.20;;;;;;5109952;28;20035;-82
2022/08/06 06:15:21;;;;;;;4.38;0.93;;;16.00;96.30;;;;;;5111355;28;20027;-82
2022/08/06 06:18:15;;;;;;;2.10;0.45;;;16.10;96.40;;;;;;5110167;28;20028;-81
2022/08/06 06:21:06;;;;;;;1.13;0.60;;;16.10;96.20;;;;;;5110222;28;20037;-82
2022/08/06 06:23:40;;;;;;;3.50;0.82;;;16.20;96.20;;;;;;5111591;28;20435;-82
2022/08/06 06:26:28;;;;;;;4.00;0.47;;;16.20;96.20;;;;;;5110700;28;20119;-82
2022/08/06 06:29:01;;;;;;;2.20;0.90;;;16.30;95.90;;;;;;5110223;28;20061;-81
2022/08/06 06:31:44;;;;;;;3.38;0.73;;;16.30;96.00;;;;;;5111293;28;20098;-82
2022/08/06 06:34:18;;;;;;;1.10;0.40;;;16.40;95.90;;;;;;5111311;28;20034;-82
2022/08/06 06:37:00;;;;;;;2.92;0.60;;;16.50;95.80;;;;;;5111138;28;20019;-83
2022/08/06 06:39:29;;;;;;;1.05;0.63;;;16.60;95.50;;;;;;5111389;28;20122;-81
2022/08/06 06:42:03;;;;;;;2.03;0.55;;;16.60;95.40;;;;;;5110890;28;20024;-82
2022/08/06 06:44:46;;;;;;;1.75;0.60;;;16.80;95.50;;;;;;5111322;28;20065;-82
2022/08/06 06:47:31;;;;;;;2.58;0.40;;;16.90;94.90;;;;;;5110378;27;20046;-82
2022/08/06 06:50:11;;;;;;;2.55;0.40;;;16.90;94.70;;;;;;5110890;28;20028;-82
2022/08/06 06:52:39;;;;;;;1.85;0.50;;;16.90;94.80;;;;;;5110903;28;20496;-82
2022/08/06 06:55:09;;;;;;;2.85;0.70;;;17.00;94.80;;;;;;5109322;28;20035;-82
2022/08/06 06:57:39;;;;;;;0.95;0.30;;;17.10;94.80;;;;;;5110549;28;20035;-82
2022/08/06 07:00:06;;;;;;;1.45;0.52;;;17.10;94.60;;;;;;5110712;28;20061;-83
2022/08/06 07:02:35;;;;;;;1.35;0.32;;;17.20;94.90;;;;;;5110916;28;20024;-81
2022/08/06 07:05:03;;;;;;;2.97;0.50;;;17.20;94.50;;;;;;5109770;28;20362;-82
2022/08/06 07:07:32;;;;;;;2.30;0.60;;;17.30;94.10;;;;;;5110425;28;20034;-82
2022/08/06 07:10:00;;;;;;;2.50;0.38;;;17.40;94.20;;;;;;5110920;28;20026;-81
2022/08/06 07:12:28;;;;;;;2.75;0.60;;;17.40;94.20;;;;;;5110933;28;20038;-83
2022/08/06 07:14:55;;;;;;;2.45;0.50;;;17.50;93.80;;;;;;5111413;28;20027;-83
2022/08/06 07:17:23;;;;;;;5.05;0.63;;;17.50;93.80;;;;;;5110356;28;20036;-81
2022/08/06 07:19:53;;;;;;;2.35;0.47;;;17.50;93.90;;;;;;5125245;28;20467;-82
2022/08/06 07:22:20;;;;;;;3.83;0.60;;;17.60;93.70;;;;;;5111895;27;20082;-83
2022/08/06 07:24:48;;;;;;;1.80;0.32;;;17.60;93.50;;;;;;5114607;28;20110;-81
2022/08/06 07:27:14;;;;;;;1.48;0.68;;;17.70;93.60;;;;;;5113066;28;20114;-82
2022/08/06 07:29:41;;;;;;;2.20;0.50;;;17.80;93.60;;;;;;5115092;28;20551;-83
2022/08/06 07:32:09;;;;;;;1.30;0.52;;;18.00;93.70;;;;;;5114265;28;20544;-83
2022/08/06 07:34:35;;;;;;;1.15;0.28;;;18.10;93.00;;;;;;5115461;28;20031;-83
2022/08/06 07:37:02;;;;;;;2.20;0.50;;;18.20;92.30;;;;;;5114203;28;20035;-83
2022/08/06 07:39:33;;;;;;;1.67;0.32;;;18.20;92.20;;;;;;5113648;28;20020;-83
2022/08/06 07:42:01;;;;;;;1.33;0.60;;;18.30;92.00;;;;;;5114489;28;20031;-83
2022/08/06 07:44:28;;;;;;;1.85;0.40;;;18.40;92.00;;;;;;5115084;28;20442;-83
2022/08/06 07:46:57;;;;;;;3.38;0.45;;;18.40;91.20;;;;;;5114100;28;20036;-83
2022/08/06 07:49:26;;;;;;;0.85;0.50;;;18.40;90.50;;;;;;5114838;28;20076;-83
2022/08/06 07:51:53;;;;;;;0.40;0.25;;;18.50;89.40;;;;;;5112912;28;20026;-83
2022/08/06 07:54:22;;;;;;;1.95;0.25;;;18.60;89.90;;;;;;5113087;28;20034;-84
2022/08/06 07:56:48;;;;;;;1.85;0.40;;;18.70;89.40;;;;;;5112736;28;20049;-84
2022/08/06 07:59:14;;;;;;;0.63;0.30;;;18.80;90.50;;;;;;5113332;28;20068;-84
2022/08/06 08:01:40;;;;;;;2.05;0.40;;;19.00;88.70;;;;;;5114624;28;20180;-84
2022/08/06 08:06:52;;;;;;;1.42;0.40;;;19.20;87.10;;;;;;5114594;28;20042;-83
2022/08/06 08:09:21;;;;;;;2.38;0.40;;;19.20;87.70;;;;;;5113270;28;20179;-84
2022/08/06 08:11:48;;;;;;;1.48;0.30;;;19.40;87.20;;;;;;5114466;28;20051;-84
2022/08/06 08:14:21;;;;;;;1.35;0.40;;;19.50;87.50;;;;;;5114331;28;20485;-85
2022/08/06 08:16:48;;;;;;;1.02;0.40;;;19.60;87.50;;;;;;5113756;28;20023;-83
2022/08/06 08:19:27;;;;;;;0.82;0.38;;;19.80;86.60;;;;;;5113006;28;20095;-85
2022/08/06 08:21:56;;;;;;;3.80;0.40;;;20.00;85.60;;;;;;5114235;28;20028;-85
2022/08/06 08:24:22;;;;;;;2.45;0.50;;;20.00;84.30;;;;;;5114151;28;20392;-85
2022/08/06 08:26:47;;;;;;;4.72;0.40;;;20.00;84.30;;;;;;5112458;28;20024;-85
2022/08/06 08:29:13;;;;;;;0.47;0.40;;;19.90;85.10;;;;;;5113984;28;20592;-85
2022/08/06 08:31:38;;;;;;;0.98;0.30;;;20.00;84.80;;;;;;5114061;28;20050;-86
2022/08/06 08:34:05;;;;;;;1.75;0.30;;;20.00;83.10;;;;;;5113600;28;20039;-83
2022/08/06 08:36:30;;;;;;;1.27;0.40;;;20.00;85.80;;;;;;5112139;28;20050;-84
2022/08/06 08:38:57;;;;;;;3.47;0.60;;;20.20;85.80;;;;;;5113891;28;20028;-83
2022/08/06 08:41:26;;;;;;;0.65;0.40;;;20.40;83.70;;;;;;5114099;28;20385;-85
2022/08/06 08:43:59;;;;;;;1.20;0.30;;;20.50;84.10;;;;;;5116154;28;20055;-84
2022/08/06 08:46:26;;;;;;;1.17;0.38;;;20.40;84.00;;;;;;5132220;27;20026;-85
2022/08/06 08:48:54;;;;;;;1.23;0.30;;;20.40;82.50;;;;;;5135091;27;20027;-85
2022/08/06 08:51:21;;;;;;;0.68;0.30;;;20.50;82.90;;;;;;5120061;28;20027;-85
2022/08/06 08:53:53;;;;;;;0.82;0.30;;;20.50;82.90;;;;;;5121885;28;20084;-84
2022/08/06 08:56:19;;;;;;;2.28;0.47;;;20.60;81.00;;;;;;5124148;28;20099;-83
2022/08/06 08:58:46;;;;;;;2.08;0.40;;;20.70;80.50;;;;;;5126129;28;20485;-84
2022/08/06 09:01:11;;;;;;;0.60;0.25;;;20.70;79.90;;;;;;5115359;28;20027;-84
2022/08/06 09:03:39;;;;;;;1.75;0.28;;;20.70;80.60;;;;;;5116741;28;20036;-84
2022/08/06 09:06:06;;;;;;;0.80;0.30;;;20.70;80.50;;;;;;5117252;28;20040;-83
2022/08/06 09:08:32;;;;;;;3.45;0.50;;;20.60;79.40;;;;;;5122428;28;20034;-83
2022/08/06 09:10:59;;;;;;;1.40;0.30;;;20.60;79.80;;;;;;5120603;28;20047;-83
2022/08/06 09:13:28;;;;;;;2.25;0.40;;;20.60;78.60;;;;;;5112964;28;20195;-83
2022/08/06 09:15:53;;;;;;;0.85;0.30;;;20.60;79.20;;;;;;5110895;28;20028;-83
2022/08/06 09:18:23;;;;;;;1.52;0.20;;;20.70;80.60;;;;;;5112567;28;20035;-85
2022/08/06 09:20:49;;;;;;;1.85;0.40;;;21.00;80.40;;;;;;5112760;28;20036;-84
2022/08/06 09:23:16;;;;;;;1.30;0.40;;;21.20;77.80;;;;;;5113015;28;20028;-84
2022/08/06 09:25:45;;;;;;;1.63;0.60;;;21.20;78.50;;;;;;5112169;28;20035;-85
2022/08/06 09:28:34;;;;;;;2.20;0.50;;;21.40;81.70;;;;;;5112947;28;20028;-83
2022/08/06 09:31:11;;;;;;;1.30;0.35;;;21.50;78.80;;;;;;5099096;28;20044;-85
2022/08/06 09:33:40;;;;;;;0.30;0.22;;;21.60;76.60;;;;;;5111782;28;20076;-85
2022/08/06 09:36:13;;;;;;;0.50;0.28;;;21.70;75.50;;;;;;5111869;28;20035;-85
2022/08/06 09:38:57;;;;;;;1.92;0.30;;;21.80;76.00;;;;;;5112385;28;20085;-86
2022/08/06 09:41:25;;;;;;;0.38;0.20;;;22.00;76.20;;;;;;5110948;28;20035;-84
2022/08/06 09:43:53;;;;;;;1.55;0.40;;;22.20;76.30;;;;;;5112904;28;20024;-86
2022/08/06 09:46:36;;;;;;;2.20;0.30;;;22.30;75.10;;;;;;5109232;28;20039;-85
2022/08/06 09:49:02;;;;;;;2.00;0.30;;;22.50;73.20;;;;;;5112391;28;20058;-85
2022/08/06 09:51:29;;;;;;;1.55;0.40;;;22.60;74.30;;;;;;5111035;28;20106;-86
2022/08/06 09:53:57;;;;;;;0.68;0.30;;;22.70;70.70;;;;;;5111035;28;20034;-86
2022/08/06 09:56:23;;;;;;;2.05;0.40;;;22.80;71.20;;;;;;5111750;28;20032;-85
2022/08/06 09:58:49;;;;;;;1.10;0.30;;;22.80;70.70;;;;;;5112099;28;20389;-85
2022/08/06 10:01:21;;;;;;;2.20;0.38;;;22.80;68.50;;;;;;5112013;28;20498;-85
2022/08/06 10:03:48;;;;;;;1.17;0.30;;;22.80;66.90;;;;;;5110958;28;20024;-86
2022/08/06 10:06:20;;;;;;;0.82;0.30;;;22.90;70.00;;;;;;5111472;28;20039;-86
2022/08/06 10:08:49;;;;;;;0.60;0.20;;;23.00;65.90;;;;;;5111616;28;20031;-86
2022/08/06 10:11:31;;;;;;;0.90;0.40;;;23.20;67.60;;;;;;5110977;28;20035;-87
2022/08/06 10:13:56;;;;;;;0.75;0.20;;;23.30;66.30;;;;;;5111156;28;20077;-85
2022/08/06 10:16:29;;;;;;;1.52;0.45;;;23.00;67.30;;;;;;5111304;28;20067;-86
2022/08/06 10:18:56;;;;;;;0.40;0.20;;;22.80;67.20;;;;;;5112347;28;20023;-88
2022/08/06 10:21:25;;;;;;;0.38;0.30;;;22.70;66.10;;;;;;5111910;28;20485;-86
2022/08/06 10:23:53;;;;;;;1.80;0.52;;;22.50;67.50;;;;;;5112122;28;20058;-88
2022/08/06 10:26:24;;;;;;;1.23;0.20;;;22.50;68.10;;;;;;5112530;28;20043;-87
2022/08/06 10:28:52;;;;;;;0.93;0.20;;;22.50;68.20;;;;;;5113434;28;20027;-88
2022/08/06 10:31:19;;;;;;;0.80;0.32;;;22.80;68.80;;;;;;5091078;28;20028;-86
2022/08/06 10:34:02;;;;;;;0.63;0.20;;;23.20;66.30;;;;;;5091726;28;20137;-86
2022/08/06 10:36:54;;;;;;;2.60;0.30;;;23.40;63.50;;;;;;5092759;28;20027;-85
2022/08/06 10:39:27;;;;;;;1.20;0.40;;;23.40;64.00;;;;;;5090277;28;20088;-86
2022/08/06 10:41:54;;;;;;;;;;;23.30;64.50;;;;;;5090605;28;20036;-86
2022/08/06 10:44:21;;;;;;;0.20;0.20;;;23.20;65.20;;;;;;5090882;28;19908;-86
2022/08/06 10:46:47;;;;;;;0.75;0.20;;;23.10;65.10;;;;;;5091234;28;20504;-88
2022/08/06 10:49:14;;;;;;;0.50;0.20;;;23.20;64.60;;;;;;5092003;28;20060;-85
2022/08/06 10:51:41;;;;;;;0.50;0.20;;;23.40;63.00;;;;;;5091266;28;20025;-86
2022/08/06 10:54:07;;;;;;;2.72;0.30;;;23.50;65.30;;;;;;5091805;28;20035;-87
2022/08/06 10:56:33;;;;;;;2.22;0.30;;;23.60;64.90;;;;;;5091780;28;20028;-85
2022/08/06 10:58:59;;;;;;;0.73;0.20;;;23.50;63.70;;;;;;5091140;28;20036;-87
2022/08/06 11:02:09;;;;;;;1.08;0.20;;;23.30;65.90;;;;;;5089982;28;20612;-85
2022/08/06 11:04:50;;;;;;;0.55;0.20;;;23.50;65.00;;;;;;5091862;28;20058;-87
2022/08/06 11:07:54;;;;;;;0.63;0.20;;;23.40;62.60;;;;;;5089280;28;20031;-85
2022/08/06 11:10:37;;;;;;;2.78;0.32;;;23.50;64.90;;;;;;5091270;28;20803;-86
2022/08/06 11:13:17;;;;;;;0.30;0.30;;;23.50;61.60;;;;;;5091011;28;20030;-86
2022/08/06 11:15:43;;;;;;;1.55;0.38;;;23.60;60.90;;;;;;5089186;28;20038;-85
2022/08/06 11:18:12;;;;;;;0.73;0.35;;;23.80;61.10;;;;;;5090410;28;20024;-87
2022/08/06 11:20:41;;;;;;;0.82;0.20;;;24.00;62.20;;;;;;5090001;28;20093;-86
2022/08/06 11:23:13;;;;;;;1.33;0.77;;;24.00;60.90;;;;;;5090396;28;20367;-86
2022/08/06 11:25:43;;;;;;;1.30;0.30;;;23.80;60.40;;;;;;5091273;28;20028;-86
2022/08/06 11:28:13;;;;;;;1.33;0.30;;;23.70;60.70;;;;;;5091223;28;20119;-86
2022/08/06 11:30:44;;;;;;;2.20;0.20;;;23.60;61.90;;;;;;5091022;28;20240;-85
2022/08/06 11:33:10;;;;;;;0.30;0.20;;;23.80;61.40;;;;;;5090037;28;20036;-85
2022/08/06 11:35:35;;;;;;;0.65;0.35;;;24.20;61.60;;;;;;5090938;28;20024;-85
2022/08/06 11:38:03;;;;;;;1.50;0.52;;;24.40;60.50;;;;;;5091175;28;20046;-85
2022/08/06 11:40:59;;;;;;;0.70;0.40;;;24.50;60.20;;;;;;5089898;28;20055;-87
2022/08/06 11:43:40;;;;;;;3.33;0.30;;;24.70;60.60;;;;;;5090411;28;20024;-86
2022/08/06 11:46:20;;;;;;;0.32;0.20;;;24.60;59.70;;;;;;5089538;28;20486;-86
2022/08/06 11:49:02;;;;;;;0.30;0.20;;;24.70;60.20;;;;;;5091568;28;20100;-86
2022/08/06 11:51:49;;;;;;;2.00;0.40;;;24.80;59.70;;;;;;5092333;28;20051;-87
2022/08/06 11:54:24;;;;;;;0.20;0.20;;;25.10;60.40;;;;;;5098809;28;20024;-84
2022/08/06 11:57:01;;;;;;;0.55;0.22;;;25.10;57.70;;;;;;5099746;28;20066;-86
2022/08/06 11:59:28;;;;;;;2.53;0.20;;;25.10;58.20;;;;;;5102216;28;20081;-84
2022/08/06 12:01:55;;;;;;;0.25;0.20;;;25.20;57.80;;;;;;5105422;28;20100;-86
2022/08/06 12:04:36;;;;;;;4.28;0.22;;;25.20;59.00;;;;;;5098225;28;20032;-87
2022/08/06 12:07:24;;;;;;;2.22;0.20;;;25.30;58.30;;;;;;5095853;28;20096;-86
2022/08/06 12:10:05;;;;;;;3.83;0.30;;;25.40;57.70;;;;;;5100684;28;20054;-86
2022/08/06 12:12:31;;;;;;;3.58;0.17;;;25.40;58.70;;;;;;5102306;28;20020;-86
2022/08/06 12:14:59;;;;;;;1.13;0.47;;;25.60;56.70;;;;;;5110649;28;20020;-85
2022/08/06 12:17:27;;;;;;;1.83;0.20;;;25.70;56.00;;;;;;5112054;28;20549;-87
2022/08/06 12:19:55;;;;;;;0.55;0.20;;;25.70;55.90;;;;;;5113519;28;20036;-88
2022/08/06 12:22:22;;;;;;;0.55;0.20;;;25.70;56.10;;;;;;5113383;28;20035;-86
2022/08/06 12:24:54;;;;;;;1.08;0.25;;;25.70;57.70;;;;;;5113472;28;20004;-86
2022/08/06 12:27:21;;;;;;;0.32;0.10;;;25.60;54.60;;;;;;5111613;28;20024;-86
2022/08/06 12:29:47;;;;;;;0.50;0.30;;;25.60;56.20;;;;;;5109978;28;20028;-83
2022/08/06 12:32:31;;;;;;;0.35;0.20;;;25.60;56.50;;;;;;5113370;28;20024;-86
2022/08/06 12:35:02;;;;;;;0.52;0.30;;;25.50;56.10;;;;;;5097040;28;20028;-85
2022/08/06 12:37:46;;;;;;;0.30;0.20;;;25.40;56.40;;;;;;5093473;28;20097;-84
2022/08/06 12:40:29;;;;;;;0.22;0.20;;;25.30;56.10;;;;;;5093920;28;20024;-84
2022/08/06 12:43:00;;;;;;;;;;;25.30;56.40;;;;;;5092506;28;20554;-84
2022/08/06 12:45:27;;;;;;;1.23;0.28;;;25.50;55.40;;;;;;5093204;28;19908;-84
2022/08/06 12:48:10;;;;;;;0.50;0.20;;;25.50;55.50;;;;;;5093239;28;20020;-85
2022/08/06 12:50:40;;;;;;;1.80;0.47;;;25.50;56.00;;;;;;5092376;28;20028;-85
2022/08/06 12:53:12;;;;;;;0.40;0.20;;;25.70;54.90;;;;;;5092050;28;20024;-85
2022/08/06 12:55:49;;;;;;;0.63;0.20;;;25.80;54.90;;;;;;5092900;28;20051;-83
2022/08/06 12:58:18;;;;;;;1.00;0.13;;;26.00;54.40;;;;;;5093954;28;20061;-87
2022/08/06 13:00:47;;;;;;;0.57;0.30;;;26.00;54.00;;;;;;5093869;28;20116;-85
2022/08/06 13:03:14;;;;;;;0.85;0.20;;;25.90;53.80;;;;;;5093265;28;20128;-84
2022/08/06 13:05:41;;;;;;;1.88;0.20;;;25.80;54.70;;;;;;5092842;28;20053;-87